Nearby METAR Reports

 

KARR - Chicago/Aurora, Illinois, USA
Distance from station: S 8mi, 13km
Updated: 06/20/2019 5:52am
Light rain, Overcast
Light rain, Overcast
 Wind from NNW
Wind: NNW 15 mph , 24 km/h
Temperature: 57°F , 14°C
Dew Point: 55°F , 13°C
Humidity: 94%
Barometer: 1003.7 hPa
Summary: Light rain
Clouds: Overcast
Visibility: 9 miles , 14 km
Cloud details: Overcast 900 ft
2019/06/20 10:52 KARR 201052Z AUTO 33013KT 9SM -RA OVC009 14/13 A2964 RMK AO2 CIG 006V012 SLP036 P0003 T01440128 TSNO
KDKB - De Kalb, Illinois, USA
Distance from station: WNW 12mi, 19km
Updated: 06/20/2019 6:35am
Overcast
Overcast
 Wind from NNW
Wind: NNW 18 mph , 30 km/h, Gust: 25 mph , 41 km/h
Temperature: 57°F , 14°C
Dew Point: 57°F , 14°C
Humidity: 100%
Barometer: 1005.4 hPa
Clouds: Overcast
Visibility: 7 miles , 11 km
Cloud details: Mostly cloudy 600 ft
Overcast 1000 ft
2019/06/20 11:35 KDKB 201135Z AUTO 33016G22KT 7SM BKN006 OVC010 14/14 A2969 RMK AO2 T01430143
 
KDPA - Chicago/Dupage, Illinois, USA
Distance from station: E 12mi, 19km
Updated: 06/20/2019 5:52am
Light rain, Mist, Overcast
Light rain, Mist, Overcast
 Wind from NW
Wind: NW 13 mph , 20 km/h
Temperature: 61°F , 16°C
Dew Point: 57°F , 14°C
Humidity: 88%
Barometer: 1003.7 hPa
Summary: Light rain, Mist
Clouds: Overcast
Visibility: 6 miles , 10 km
Cloud details: Overcast 500 ft
2019/06/20 10:52 KDPA 201052Z 32011KT 6SM -RA BR OVC005 16/14 A2964 RMK AO2 SLP033 P0002 T01560139
KLOT - Romeoville/Chi, Illinois, USA
Distance from station: SE 28mi, 45km
Updated: 06/20/2019 6:35am
Drizzle, Overcast
Drizzle, Overcast
 Wind from NNW
Wind: NNW 14 mph , 22 km/h
Temperature: 59°F , 15°C
Dew Point: 59°F , 15°C
Humidity: 100%
Barometer: 1003.7 hPa
Summary: Drizzle
Clouds: Overcast
Visibility: 4 miles , 6 km
Cloud details: Overcast 400 ft
2019/06/20 11:35 KLOT 201135Z AUTO 34012KT 4SM DZ OVC004 15/15 A2964 RMK AO2 P0002 T01480148
 
KORD - Chicago O'hare, Illinois, USA
Distance from station: ENE 29mi, 46km
Updated: 06/20/2019 5:51am
Light drizzle, Mist, Overcast
Light drizzle, Mist, Overcast
 Wind from N
Wind: N 12 mph , 19 km/h
Temperature: 59°F , 15°C
Dew Point: 57°F , 14°C
Humidity: 94%
Barometer: 1002.7 hPa
Summary: Light drizzle, Mist
Clouds: Overcast
Visibility: 5 miles , 8 km
Cloud details: Overcast 400 ft
2019/06/20 10:51 KORD 201051Z 01010KT 5SM -DZ BR OVC004 15/14 A2961 RMK AO2 SLP027 RAE32DZB33 P0006 T01500144
KJOT - Joliet, Illinois, USA
Distance from station: SSE 30mi, 48km
Updated: 06/20/2019 6:35am
Rain, Overcast
Rain, Overcast
 Wind from NNW
Wind: NNW 8 mph , 13 km/h
Temperature: 61°F , 16°C
Dew Point: 61°F , 16°C
Humidity: 100%
Barometer: 1003.7 hPa
Summary: Rain
Clouds: Overcast
Visibility: 5 miles , 8 km
Cloud details: Overcast 400 ft
2019/06/20 11:35 KJOT 201135Z AUTO 34007KT 5SM RA OVC004 16/16 A2964 RMK AO2 P0003 T01560156
 
KRPJ - Rochelle/Koritz, Illinois, USA
Distance from station: W 31mi, 50km
Updated: 06/20/2019 6:35am
Overcast
Overcast
 Wind from NNW
Wind: NNW 10 mph , 17 km/h
Temperature: 59°F , 15°C
Dew Point: 57°F , 14°C
Humidity: 94%
Barometer: 1005.8 hPa
Clouds: Overcast
Visibility: 10 miles , 16 km
Cloud details: Mostly cloudy 2300 ft
Overcast 3400 ft
2019/06/20 11:35 KRPJ 201135Z AUTO 34009KT 10SM BKN023 OVC034 15/14 A2970 RMK AO2 T01450140
KC09 - Morris-Washburn, Illinois, USA
Distance from station: S 31mi, 51km
Updated: 06/20/2019 6:35am
Rain, Overcast
Rain, Overcast
 Wind from NNW
Wind: NNW 9 mph , 15 km/h
Temperature: 59°F , 15°C
Dew Point: 57°F , 14°C
Humidity: 94%
Barometer: 1003.7 hPa
Summary: Rain
Clouds: Overcast
Visibility: 10 miles , 16 km
Cloud details: Partly cloudy 900 ft
Overcast 2000 ft
2019/06/20 11:35 KC09 201135Z AUTO 33008KT 300V010 10SM RA SCT009 OVC020 15/14 A2964 RMK AO2 P0001 T01460143
 
KPWK - Palwaukee, Illinois, USA
Distance from station: ENE 34mi, 54km
Updated: 06/20/2019 5:52am
Overcast
Overcast
 Wind from N
Wind: N 10 mph , 17 km/h, Gust: 17 mph , 28 km/h
Temperature: 61°F , 16°C
Dew Point: 57°F , 14°C
Humidity: 88%
Barometer: 1003.4 hPa
Clouds: Overcast
Visibility: 10 miles , 16 km
Cloud details: Overcast 400 ft
2019/06/20 10:52 KPWK 201052Z 01009G15KT 10SM OVC004 16/14 A2963 RMK AO2 SLP034 T01610139
KMDW - Chicago, Illinois, USA
Distance from station: E 38mi, 62km
Updated: 06/20/2019 6:19am
Mist, Overcast
Mist, Overcast
 Wind from N
Wind: N 13 mph , 20 km/h
Temperature: 57°F , 14°C
Dew Point: 57°F , 14°C
Humidity: 100%
Barometer: 1002.7 hPa
Summary: Mist
Clouds: Overcast
Visibility: 3 miles , 5 km
Cloud details: Overcast 300 ft
2019/06/20 11:19 KMDW 201119Z 36011KT 3SM BR OVC003 14/14 A2961 RMK AO2 T01440144
 
KRFD - Rockford, Illinois, USA
Distance from station: NW 39mi, 62km
Updated: 06/20/2019 6:37am
Light rain, Overcast
Light rain, Overcast
 Wind from NNW
Wind: NNW 10 mph , 17 km/h
Temperature: 59°F , 15°C
Dew Point: 57°F , 14°C
Humidity: 94%
Barometer: 1006.4 hPa
Summary: Light rain
Clouds: Overcast
Visibility: 8 miles , 13 km
Cloud details: Few Clouds 1200 ft
Partly cloudy 2600 ft
Overcast 3600 ft
2019/06/20 11:37 KRFD 201137Z 33009KT 8SM -RA FEW012 SCT026 OVC036 15/14 A2972 RMK AO2 RAB31 P0000 T01500139
KUGN - Waukegan, Illinois, USA
Distance from station: NE 48mi, 78km
Updated: 06/20/2019 6:40am
Light rain, Mist, Overcast
Light rain, Mist, Overcast
 Wind from NNW
Wind: NNW 7 mph , 11 km/h
Temperature: 57°F , 14°C
Dew Point: 55°F , 13°C
Humidity: 94%
Barometer: 1004.4 hPa
Summary: Light rain, Mist
Clouds: Overcast
Visibility: 2 miles , 3 km
Cloud details: Overcast 200 ft
2019/06/20 11:40 KUGN 201140Z 33006KT 2SM -RA BR OVC002 14/13 A2966 RMK AO2 RAB30 P0002 T01390128